Time;durP1;ratioP1;P1;durP2;ratioP2;P2;SDS_P1;SDS_P2;PMS_P1;PMS_P2;Temp;Humidity;BMP_temperature;BMP_pressure;BME280_temperature;BME280_humidity;BME280_pressure;Samples;Min_cycle;Max_cycle;Signal;HPM_P1;HPM_P2
2021/01/23 00:00:46;;;;;;;10.30;7.95;;;;;;;;;;5091433;28;20399;-76
2021/01/23 00:03:19;;;;;;;10.77;7.85;;;;;;;;;;5092119;28;20260;-77
2021/01/23 00:05:51;;;;;;;12.68;7.95;;;;;;;;;;5093164;28;20233;-76
2021/01/23 00:08:24;;;;;;;8.48;7.18;;;;;;;;;;5093725;28;20196;-76
2021/01/23 00:10:57;;;;;;;10.55;6.82;;;;;;;;;;5094232;28;20637;-76
2021/01/23 00:13:25;;;;;;;11.30;6.95;;;;;;;;;;5095101;28;20213;-76
2021/01/23 00:15:58;;;;;;;12.93;7.88;;;;;;;;;;5095722;28;20197;-77
2021/01/23 00:18:30;;;;;;;9.02;7.43;;;;;;;;;;5094396;28;20221;-75
2021/01/23 00:21:03;;;;;;;10.07;7.88;;;;;;;;;;5092149;28;20202;-76
2021/01/23 00:23:36;;;;;;;11.40;6.28;;;;;;;;;;5091302;28;20236;-75
2021/01/23 00:26:09;;;;;;;7.95;6.45;;;;;;;;;;5093225;28;20288;-76
2021/01/23 00:28:43;;;;;;;9.40;6.55;;;;;;;;;;5092665;28;20707;-76
2021/01/23 00:31:16;;;;;;;8.68;6.10;;;;;;;;;;5093321;28;20254;-76
2021/01/23 00:33:48;;;;;;;8.93;6.88;;;;;;;;;;5094107;28;20304;-76
2021/01/23 00:36:21;;;;;;;7.72;5.95;;;;;;;;;;5095079;28;20204;-75
2021/01/23 00:38:54;;;;;;;11.10;6.03;;;;;;;;;;5094935;28;20224;-76
2021/01/23 00:41:27;;;;;;;12.18;6.30;;;;;;;;;;5094802;28;20193;-76
2021/01/23 00:44:01;;;;;;;11.13;7.75;;;;;;;;;;5090484;28;20684;-76
2021/01/23 00:46:33;;;;;;;8.00;7.03;;;;;;;;;;5091005;28;20197;-76
2021/01/23 00:49:06;;;;;;;9.30;6.75;;;;;;;;;;5092441;28;20200;-77
2021/01/23 00:51:39;;;;;;;9.65;7.07;;;;;;;;;;5092488;28;20200;-76
2021/01/23 00:54:12;;;;;;;9.35;7.00;;;;;;;;;;5093043;28;20538;-76
2021/01/23 00:56:45;;;;;;;10.70;7.13;;;;;;;;;;5093758;28;20247;-76
2021/01/23 00:59:18;;;;;;;12.48;7.55;;;;;;;;;;5094365;28;20229;-76
2021/01/23 01:01:51;;;;;;;8.60;6.68;;;;;;;;;;5094421;28;20547;-76
2021/01/23 01:04:24;;;;;;;11.57;7.28;;;;;;;;;;5093793;28;20208;-76
2021/01/23 01:06:57;;;;;;;10.32;7.20;;;;;;;;;;5089528;28;20209;-75
2021/01/23 01:09:30;;;;;;;12.23;6.22;;;;;;;;;;5090964;28;20200;-75
2021/01/23 01:12:02;;;;;;;9.93;7.03;;;;;;;;;;5092305;28;20221;-75
2021/01/23 01:14:36;;;;;;;7.15;6.30;;;;;;;;;;5092278;28;20202;-76
2021/01/23 01:17:09;;;;;;;10.40;7.47;;;;;;;;;;5092399;28;20289;-76
2021/01/23 01:19:43;;;;;;;11.38;6.35;;;;;;;;;;5094075;28;20232;-76
2021/01/23 01:22:16;;;;;;;9.10;6.05;;;;;;;;;;5093608;28;20304;-76
2021/01/23 01:24:48;;;;;;;8.45;6.30;;;;;;;;;;5086552;28;20197;-75
2021/01/23 01:27:21;;;;;;;11.80;6.70;;;;;;;;;;5090258;28;20643;-75
2021/01/23 01:29:55;;;;;;;8.55;6.32;;;;;;;;;;5091340;28;20197;-76
2021/01/23 01:32:27;;;;;;;7.05;5.90;;;;;;;;;;5091445;28;20228;-76
2021/01/23 01:35:00;;;;;;;8.70;6.35;;;;;;;;;;5092330;28;20278;-75
2021/01/23 01:37:33;;;;;;;8.23;5.57;;;;;;;;;;5092707;28;20193;-75
2021/01/23 01:40:07;;;;;;;10.52;6.40;;;;;;;;;;5093864;28;20228;-75
2021/01/23 01:42:46;;;;;;;8.60;6.65;;;;;;;;;;5093698;28;20227;-75
2021/01/23 01:45:19;;;;;;;9.10;5.93;;;;;;;;;;5093819;28;20197;-75
2021/01/23 01:47:52;;;;;;;7.80;6.47;;;;;;;;;;5089387;28;20906;-75
2021/01/23 01:50:25;;;;;;;9.45;5.65;;;;;;;;;;5078556;28;20675;-75
2021/01/23 01:52:58;;;;;;;6.63;5.93;;;;;;;;;;5071009;28;20291;-76
2021/01/23 01:55:32;;;;;;;11.15;6.75;;;;;;;;;;5070895;28;20247;-75
2021/01/23 01:58:05;;;;;;;10.18;6.40;;;;;;;;;;5071284;28;20667;-75
2021/01/23 02:00:38;;;;;;;9.35;6.20;;;;;;;;;;5073039;28;20246;-75
2021/01/23 02:03:19;;;;;;;7.15;5.57;;;;;;;;;;5090508;28;20313;-75
2021/01/23 02:05:56;;;;;;;12.43;6.13;;;;;;;;;;5093170;28;20199;-75
2021/01/23 02:08:31;;;;;;;8.05;5.90;;;;;;;;;;5092187;28;20561;-75
2021/01/23 02:11:06;;;;;;;9.93;6.13;;;;;;;;;;5087600;28;20186;-75
2021/01/23 02:13:42;;;;;;;8.80;6.93;;;;;;;;;;5090436;28;20212;-76
2021/01/23 02:16:16;;;;;;;7.97;6.22;;;;;;;;;;5089258;28;20194;-75
2021/01/23 02:18:51;;;;;;;11.00;7.07;;;;;;;;;;5091035;28;20289;-75
2021/01/23 02:21:31;;;;;;;16.08;7.47;;;;;;;;;;5091828;28;20588;-75
2021/01/23 02:24:06;;;;;;;7.75;6.10;;;;;;;;;;5093023;28;20197;-76
2021/01/23 02:26:48;;;;;;;8.35;6.25;;;;;;;;;;5092731;28;20210;-75
2021/01/23 02:29:27;;;;;;;10.80;7.25;;;;;;;;;;5093063;28;20260;-75
2021/01/23 02:32:02;;;;;;;12.77;5.65;;;;;;;;;;5089446;28;20215;-75
2021/01/23 02:34:35;;;;;;;9.60;6.05;;;;;;;;;;5088691;28;20562;-75
2021/01/23 02:37:09;;;;;;;8.85;5.55;;;;;;;;;;5090653;28;20681;-75
2021/01/23 02:39:42;;;;;;;7.15;5.95;;;;;;;;;;5090703;28;20235;-75
2021/01/23 02:42:15;;;;;;;11.93;7.32;;;;;;;;;;5088908;28;20296;-75
2021/01/23 02:44:48;;;;;;;6.72;6.07;;;;;;;;;;5091814;28;20204;-75
2021/01/23 02:47:21;;;;;;;10.45;6.07;;;;;;;;;;5092619;28;20227;-76
2021/01/23 02:49:54;;;;;;;7.68;6.72;;;;;;;;;;5092779;28;20204;-75
2021/01/23 02:52:36;;;;;;;7.65;5.60;;;;;;;;;;5092681;28;20250;-75
2021/01/23 02:55:10;;;;;;;8.70;6.72;;;;;;;;;;5088236;28;20234;-75
2021/01/23 02:57:45;;;;;;;7.53;6.10;;;;;;;;;;5089128;28;20241;-75
2021/01/23 03:00:18;;;;;;;11.90;7.65;;;;;;;;;;5090649;28;20546;-76
2021/01/23 03:02:54;;;;;;;12.25;7.07;;;;;;;;;;5088704;28;20309;-78
2021/01/23 03:05:27;;;;;;;10.43;6.10;;;;;;;;;;5090450;28;20194;-77
2021/01/23 03:08:00;;;;;;;12.07;6.22;;;;;;;;;;5092563;28;20204;-78
2021/01/23 03:10:42;;;;;;;9.45;5.90;;;;;;;;;;5092031;28;20204;-78
2021/01/23 03:13:15;;;;;;;13.32;7.30;;;;;;;;;;5091452;28;20591;-78
2021/01/23 03:15:48;;;;;;;7.97;6.32;;;;;;;;;;5090883;28;20246;-77
2021/01/23 03:18:22;;;;;;;9.48;6.40;;;;;;;;;;5088044;28;20238;-79
2021/01/23 03:20:55;;;;;;;6.93;5.75;;;;;;;;;;5089815;28;20224;-79
2021/01/23 03:23:27;;;;;;;7.70;6.18;;;;;;;;;;5089564;28;20205;-79
2021/01/23 03:26:00;;;;;;;10.45;6.13;;;;;;;;;;5090250;28;20262;-76
2021/01/23 03:28:33;;;;;;;9.05;6.90;;;;;;;;;;5090844;28;20262;-77
2021/01/23 03:31:06;;;;;;;8.43;6.50;;;;;;;;;;5092257;28;20201;-77
2021/01/23 03:33:39;;;;;;;11.10;6.82;;;;;;;;;;5090205;28;20716;-77
2021/01/23 03:36:12;;;;;;;7.05;5.45;;;;;;;;;;5087446;28;20197;-78
2021/01/23 03:38:45;;;;;;;7.60;5.68;;;;;;;;;;5089322;28;20221;-77
2021/01/23 03:41:18;;;;;;;9.57;6.70;;;;;;;;;;5090017;28;20635;-77
2021/01/23 03:43:51;;;;;;;7.75;5.95;;;;;;;;;;5089880;28;20228;-77
2021/01/23 03:46:23;;;;;;;7.07;5.30;;;;;;;;;;5090521;28;20670;-78
2021/01/23 03:48:57;;;;;;;7.97;5.85;;;;;;;;;;5091704;28;20204;-77
2021/01/23 03:51:30;;;;;;;8.82;5.47;;;;;;;;;;5092028;28;20290;-77
2021/01/23 03:54:03;;;;;;;9.30;5.70;;;;;;;;;;5094664;28;20345;-77
2021/01/23 03:56:36;;;;;;;5.30;4.50;;;;;;;;;;5093596;28;20192;-78
2021/01/23 03:59:08;;;;;;;10.65;4.82;;;;;;;;;;5091711;28;20244;-77
2021/01/23 04:01:41;;;;;;;8.75;5.00;;;;;;;;;;5092929;28;20208;-78
2021/01/23 04:04:15;;;;;;;6.10;5.10;;;;;;;;;;5092325;28;20214;-77
2021/01/23 04:06:48;;;;;;;8.48;4.82;;;;;;;;;;5093644;28;20651;-78
2021/01/23 04:09:20;;;;;;;4.90;4.40;;;;;;;;;;5094718;28;20282;-76
2021/01/23 04:11:53;;;;;;;8.60;5.32;;;;;;;;;;5095611;28;20574;-77
2021/01/23 04:14:26;;;;;;;10.95;5.38;;;;;;;;;;5095428;28;20204;-76
2021/01/23 04:16:59;;;;;;;7.97;5.35;;;;;;;;;;5095082;28;20208;-77
2021/01/23 04:19:32;;;;;;;8.10;3.97;;;;;;;;;;5092093;28;20225;-79
2021/01/23 04:22:05;;;;;;;8.10;4.80;;;;;;;;;;5091236;28;20699;-80
2021/01/23 04:24:38;;;;;;;5.00;4.45;;;;;;;;;;5093270;28;20765;-79
2021/01/23 04:27:11;;;;;;;8.70;5.40;;;;;;;;;;5092921;28;20250;-79
2021/01/23 04:29:43;;;;;;;5.45;4.57;;;;;;;;;;5093751;28;20285;-77
2021/01/23 04:32:16;;;;;;;7.13;5.07;;;;;;;;;;5094017;28;20218;-77
2021/01/23 04:34:50;;;;;;;9.10;4.80;;;;;;;;;;5095009;28;20677;-79
2021/01/23 04:37:22;;;;;;;6.25;5.47;;;;;;;;;;5095232;28;20212;-78
2021/01/23 04:39:55;;;;;;;8.07;5.30;;;;;;;;;;5094802;28;20223;-77
2021/01/23 04:42:28;;;;;;;10.48;5.10;;;;;;;;;;5090400;28;20702;-77
2021/01/23 04:45:01;;;;;;;6.22;4.60;;;;;;;;;;5091010;28;20212;-78
2021/01/23 04:47:34;;;;;;;6.40;4.88;;;;;;;;;;5092531;28;20662;-77
2021/01/23 04:50:09;;;;;;;6.55;4.90;;;;;;;;;;5092795;28;20198;-76
2021/01/23 04:52:42;;;;;;;8.48;5.30;;;;;;;;;;5092701;28;20746;-77
2021/01/23 04:55:15;;;;;;;6.88;4.95;;;;;;;;;;5074512;28;20239;-78
2021/01/23 04:57:48;;;;;;;6.80;5.20;;;;;;;;;;5074485;28;20264;-77
2021/01/23 05:00:21;;;;;;;8.82;5.60;;;;;;;;;;5093686;28;20300;-76
2021/01/23 05:03:01;;;;;;;8.38;5.50;;;;;;;;;;5092276;28;20274;-77
2021/01/23 05:05:36;;;;;;;7.55;6.20;;;;;;;;;;5089826;28;20200;-76
2021/01/23 05:08:09;;;;;;;9.50;5.95;;;;;;;;;;5091460;28;20208;-78
2021/01/23 05:10:42;;;;;;;7.10;5.72;;;;;;;;;;5092164;28;20289;-78
2021/01/23 05:13:16;;;;;;;6.40;5.43;;;;;;;;;;5091567;28;20210;-77
2021/01/23 05:15:49;;;;;;;5.43;4.88;;;;;;;;;;5093018;28;20282;-77
2021/01/23 05:18:21;;;;;;;9.73;6.82;;;;;;;;;;5094446;28;20292;-76
2021/01/23 05:20:56;;;;;;;9.73;6.72;;;;;;;;;;5093932;28;20219;-77
2021/01/23 05:23:30;;;;;;;7.07;5.63;;;;;;;;;;5094144;28;20277;-77
2021/01/23 05:26:09;;;;;;;7.00;5.75;;;;;;;;;;5091485;28;20279;-78
2021/01/23 05:28:42;;;;;;;7.40;5.85;;;;;;;;;;5089889;28;20204;-77
2021/01/23 05:31:16;;;;;;;7.70;5.30;;;;;;;;;;5091570;28;20197;-77
2021/01/23 05:33:49;;;;;;;8.48;5.28;;;;;;;;;;5090352;28;20213;-77
2021/01/23 05:36:23;;;;;;;9.77;6.03;;;;;;;;;;5091817;28;20212;-77
2021/01/23 05:38:56;;;;;;;7.97;5.95;;;;;;;;;;5092631;28;20227;-77
2021/01/23 05:41:29;;;;;;;10.00;6.18;;;;;;;;;;5093739;28;20226;-77
2021/01/23 05:44:01;;;;;;;10.27;6.63;;;;;;;;;;5093657;28;20565;-77
2021/01/23 05:46:35;;;;;;;6.72;5.88;;;;;;;;;;5093656;28;20208;-77
2021/01/23 05:49:07;;;;;;;7.90;6.38;;;;;;;;;;5090356;28;20190;-78
2021/01/23 05:51:41;;;;;;;7.55;6.15;;;;;;;;;;5089509;28;20211;-77
2021/01/23 05:54:14;;;;;;;10.38;5.93;;;;;;;;;;5090981;28;20283;-77
2021/01/23 05:56:48;;;;;;;9.48;6.78;;;;;;;;;;5091293;28;20205;-77
2021/01/23 05:59:20;;;;;;;8.63;6.47;;;;;;;;;;5091540;28;20217;-77
2021/01/23 06:01:54;;;;;;;8.15;5.80;;;;;;;;;;5092536;28;20258;-79
2021/01/23 06:04:27;;;;;;;9.45;5.97;;;;;;;;;;5092224;28;20240;-77
2021/01/23 06:07:00;;;;;;;9.43;6.55;;;;;;;;;;5093580;28;20206;-77
2021/01/23 06:09:35;;;;;;;10.02;6.55;;;;;;;;;;5093070;28;20284;-77
2021/01/23 06:12:16;;;;;;;9.05;5.85;;;;;;;;;;5088976;28;20302;-77
2021/01/23 06:14:49;;;;;;;10.93;6.10;;;;;;;;;;5088530;28;20207;-77
2021/01/23 06:17:36;;;;;;;8.85;6.13;;;;;;;;;;5089590;28;20204;-79
2021/01/23 06:20:09;;;;;;;7.45;6.15;;;;;;;;;;5089856;28;20224;-78
2021/01/23 06:22:51;;;;;;;11.60;6.50;;;;;;;;;;5091201;28;20232;-77
2021/01/23 06:25:24;;;;;;;6.20;5.50;;;;;;;;;;5092043;28;20208;-77
2021/01/23 06:27:57;;;;;;;10.40;5.75;;;;;;;;;;5092913;28;20204;-77
2021/01/23 06:30:31;;;;;;;8.88;5.97;;;;;;;;;;5092861;28;20716;-77
2021/01/23 06:33:12;;;;;;;6.72;5.82;;;;;;;;;;5090565;28;20332;-77
2021/01/23 06:35:45;;;;;;;10.05;6.93;;;;;;;;;;5087844;28;20242;-77
2021/01/23 06:38:18;;;;;;;9.07;6.07;;;;;;;;;;5090216;28;20288;-77
2021/01/23 06:40:51;;;;;;;8.48;6.25;;;;;;;;;;5090223;28;20222;-78
2021/01/23 06:43:24;;;;;;;9.90;6.20;;;;;;;;;;5090846;28;20639;-78
2021/01/23 06:45:57;;;;;;;8.07;6.13;;;;;;;;;;5091656;28;20208;-77
2021/01/23 06:48:29;;;;;;;8.00;6.15;;;;;;;;;;5092810;28;20197;-78
2021/01/23 06:51:02;;;;;;;8.60;6.07;;;;;;;;;;5092426;28;20235;-76
2021/01/23 06:53:35;;;;;;;9.13;6.13;;;;;;;;;;5092763;28;20313;-77
2021/01/23 06:56:09;;;;;;;6.70;5.70;;;;;;;;;;5088511;28;20647;-77
2021/01/23 06:58:43;;;;;;;9.82;5.60;;;;;;;;;;5088714;28;20212;-77
2021/01/23 07:01:16;;;;;;;8.80;6.43;;;;;;;;;;5090548;28;20219;-75
2021/01/23 07:03:55;;;;;;;5.93;4.47;;;;;;;;;;5088356;28;20225;-75
2021/01/23 07:06:30;;;;;;;10.32;6.07;;;;;;;;;;5090833;28;20194;-75
2021/01/23 07:08:56;;;;;;;8.45;5.60;;;;;;;;;;5090283;28;20209;-77
2021/01/23 07:11:30;;;;;;;9.10;6.00;;;;;;;;;;5072298;28;20661;-75
2021/01/23 07:14:04;;;;;;;7.47;5.15;;;;;;;;;;5087180;28;20199;-77
2021/01/23 07:16:37;;;;;;;9.77;6.30;;;;;;;;;;5073428;28;20201;-76
2021/01/23 07:19:10;;;;;;;7.13;5.75;;;;;;;;;;5085654;28;20386;-77
2021/01/23 07:21:43;;;;;;;7.32;5.60;;;;;;;;;;5088649;28;20562;-77
2021/01/23 07:24:16;;;;;;;7.22;5.55;;;;;;;;;;5090069;28;20223;-75
2021/01/23 07:26:51;;;;;;;8.38;6.07;;;;;;;;;;5090822;28;20250;-76
2021/01/23 07:29:24;;;;;;;8.23;5.22;;;;;;;;;;5094101;28;20207;-76
2021/01/23 07:31:57;;;;;;;10.00;5.43;;;;;;;;;;5096331;28;20716;-77
2021/01/23 07:34:29;;;;;;;6.85;5.32;;;;;;;;;;5096200;28;20687;-77
2021/01/23 07:37:02;;;;;;;6.82;5.30;;;;;;;;;;5095947;28;20230;-76
2021/01/23 07:39:35;;;;;;;8.52;6.10;;;;;;;;;;5093984;28;20217;-76
2021/01/23 07:42:09;;;;;;;8.27;5.80;;;;;;;;;;5091744;28;20266;-77
2021/01/23 07:44:42;;;;;;;7.00;5.63;;;;;;;;;;5093300;28;20212;-78
2021/01/23 07:47:15;;;;;;;6.90;5.80;;;;;;;;;;5093356;28;20646;-77
2021/01/23 07:49:47;;;;;;;9.13;5.55;;;;;;;;;;5093559;28;20197;-76
2021/01/23 07:52:27;;;;;;;9.00;5.53;;;;;;;;;;5084963;28;20309;-76
2021/01/23 07:55:00;;;;;;;6.90;5.78;;;;;;;;;;5095346;28;20219;-76
2021/01/23 07:57:33;;;;;;;6.63;5.40;;;;;;;;;;5095780;28;20288;-77
2021/01/23 08:00:07;;;;;;;8.75;5.88;;;;;;;;;;5094413;28;20308;-76
2021/01/23 08:02:48;;;;;;;8.93;5.93;;;;;;;;;;5092231;28;20261;-76
2021/01/23 08:05:21;;;;;;;7.10;5.85;;;;;;;;;;5090600;28;20326;-76
2021/01/23 08:07:50;;;;;;;7.72;5.30;;;;;;;;;;5093087;28;20197;-77
2021/01/23 08:10:23;;;;;;;5.75;4.85;;;;;;;;;;5091843;28;20186;-76
2021/01/23 08:12:58;;;;;;;10.77;5.93;;;;;;;;;;5093298;28;20300;-75
2021/01/23 08:15:32;;;;;;;8.43;5.50;;;;;;;;;;5093359;28;20684;-75
2021/01/23 08:18:13;;;;;;;9.57;6.05;;;;;;;;;;5092199;28;20201;-75
2021/01/23 08:20:46;;;;;;;7.95;5.50;;;;;;;;;;5088942;28;20258;-77
2021/01/23 08:23:21;;;;;;;8.02;5.88;;;;;;;;;;5088564;28;20301;-75
2021/01/23 08:25:49;;;;;;;9.82;5.78;;;;;;;;;;5091839;28;20191;-76
2021/01/23 08:28:35;;;;;;;9.40;5.93;;;;;;;;;;5091675;28;20225;-76
2021/01/23 08:31:13;;;;;;;6.80;5.05;;;;;;;;;;5093332;28;20676;-76
2021/01/23 08:33:48;;;;;;;7.82;5.82;;;;;;;;;;5095053;28;20221;-77
2021/01/23 08:36:21;;;;;;;7.10;5.20;;;;;;;;;;5093623;28;20189;-77
2021/01/23 08:38:55;;;;;;;8.85;6.05;;;;;;;;;;5093700;28;20239;-76
2021/01/23 08:41:27;;;;;;;8.90;5.75;;;;;;;;;;5090549;28;20193;-75
2021/01/23 08:44:01;;;;;;;8.80;6.30;;;;;;;;;;5090962;28;20211;-75
2021/01/23 08:46:34;;;;;;;10.30;6.47;;;;;;;;;;5092502;28;20203;-76
2021/01/23 08:49:07;;;;;;;7.80;6.07;;;;;;;;;;5091907;28;20200;-76
2021/01/23 08:51:45;;;;;;;7.68;5.72;;;;;;;;;;5092746;28;20196;-75
2021/01/23 08:54:18;;;;;;;8.40;6.03;;;;;;;;;;5093545;28;20288;-77
2021/01/23 08:56:51;;;;;;;8.32;5.88;;;;;;;;;;5094962;28;20200;-77
2021/01/23 08:59:25;;;;;;;10.57;6.50;;;;;;;;;;5093089;28;20380;-76
2021/01/23 09:01:58;;;;;;;9.23;6.85;;;;;;;;;;5094164;28;20705;-77
2021/01/23 09:04:25;;;;;;;8.77;5.93;;;;;;;;;;5089328;28;20583;-75
2021/01/23 09:06:57;;;;;;;7.88;6.53;;;;;;;;;;5090145;28;20219;-74
2021/01/23 09:09:30;;;;;;;10.75;6.53;;;;;;;;;;5091292;28;20706;-75
2021/01/23 09:12:03;;;;;;;7.43;5.50;;;;;;;;;;5091791;28;20344;-75
2021/01/23 09:14:38;;;;;;;9.57;7.10;;;;;;;;;;5092058;28;20715;-75
2021/01/23 09:17:11;;;;;;;9.85;5.50;;;;;;;;;;5093469;28;20205;-78
2021/01/23 09:19:44;;;;;;;7.82;6.05;;;;;;;;;;5093100;28;20704;-77
2021/01/23 09:22:16;;;;;;;10.20;7.50;;;;;;;;;;5093552;28;20235;-79
2021/01/23 09:24:49;;;;;;;8.75;7.10;;;;;;;;;;5094318;28;20197;-75
2021/01/23 09:27:22;;;;;;;9.95;6.85;;;;;;;;;;5088805;28;20224;-78
2021/01/23 09:29:55;;;;;;;10.00;6.85;;;;;;;;;;5089751;28;20293;-77
2021/01/23 09:32:28;;;;;;;10.55;7.15;;;;;;;;;;5091509;28;20228;-75
2021/01/23 09:35:01;;;;;;;8.40;6.75;;;;;;;;;;5091232;28;20276;-76
2021/01/23 09:37:34;;;;;;;9.73;6.80;;;;;;;;;;5091965;28;20204;-75
2021/01/23 09:40:07;;;;;;;9.82;7.55;;;;;;;;;;5091081;28;20576;-77
2021/01/23 09:42:40;;;;;;;9.48;6.63;;;;;;;;;;5081990;28;20213;-76
2021/01/23 09:45:14;;;;;;;12.45;7.82;;;;;;;;;;5090272;28;20204;-75
2021/01/23 09:47:47;;;;;;;12.80;7.65;;;;;;;;;;5091663;28;20201;-77
2021/01/23 09:50:21;;;;;;;10.02;7.90;;;;;;;;;;5091604;28;20554;-78
2021/01/23 09:52:54;;;;;;;9.75;7.47;;;;;;;;;;5092096;28;20216;-77
2021/01/23 09:55:27;;;;;;;9.63;7.00;;;;;;;;;;5093464;28;20194;-77
2021/01/23 09:58:00;;;;;;;8.75;6.97;;;;;;;;;;5093921;28;20197;-78
2021/01/23 10:00:33;;;;;;;13.10;7.50;;;;;;;;;;5093835;28;20227;-78
2021/01/23 10:03:06;;;;;;;10.88;6.97;;;;;;;;;;5091061;28;20232;-75
2021/01/23 10:05:39;;;;;;;9.18;6.75;;;;;;;;;;5089982;28;20194;-76
2021/01/23 10:08:12;;;;;;;9.68;7.38;;;;;;;;;;5091273;28;20699;-75
2021/01/23 10:10:44;;;;;;;8.38;6.88;;;;;;;;;;5092337;28;20198;-75
2021/01/23 10:13:17;;;;;;;12.82;7.20;;;;;;;;;;5091660;28;20217;-77
2021/01/23 10:15:51;;;;;;;13.07;7.68;;;;;;;;;;5092738;28;20647;-77
2021/01/23 10:18:24;;;;;;;9.20;7.15;;;;;;;;;;5093403;28;20254;-78
2021/01/23 10:20:59;;;;;;;10.90;7.95;;;;;;;;;;5097958;28;20701;-79
2021/01/23 10:23:32;;;;;;;11.55;6.38;;;;;;;;;;5092973;28;20216;-78
2021/01/23 10:26:05;;;;;;;9.13;7.18;;;;;;;;;;5089288;28;20249;-78
2021/01/23 10:28:38;;;;;;;10.68;6.95;;;;;;;;;;5089172;28;20344;-77
2021/01/23 10:31:11;;;;;;;8.77;6.65;;;;;;;;;;5090486;28;20197;-76
2021/01/23 10:33:44;;;;;;;7.20;5.25;;;;;;;;;;5090461;28;20304;-77
2021/01/23 10:36:18;;;;;;;8.82;5.60;;;;;;;;;;5091023;28;20517;-78
2021/01/23 10:38:51;;;;;;;10.18;5.95;;;;;;;;;;5091372;28;20564;-76
2021/01/23 10:41:24;;;;;;;7.03;5.75;;;;;;;;;;5092698;28;20216;-76
2021/01/23 10:43:56;;;;;;;7.38;5.35;;;;;;;;;;5091685;28;20217;-73
2021/01/23 10:46:30;;;;;;;7.68;5.43;;;;;;;;;;5088087;28;20216;-77
2021/01/23 10:49:04;;;;;;;6.50;5.15;;;;;;;;;;5087934;28;20203;-75
2021/01/23 10:51:36;;;;;;;5.85;4.43;;;;;;;;;;5090199;28;20287;-78
2021/01/23 10:54:03;;;;;;;6.13;4.65;;;;;;;;;;5090057;28;20725;-77
2021/01/23 10:56:36;;;;;;;6.05;4.80;;;;;;;;;;5090434;28;20667;-75
2021/01/23 10:59:09;;;;;;;7.88;5.00;;;;;;;;;;5091926;28;20208;-77
2021/01/23 11:01:37;;;;;;;5.63;4.30;;;;;;;;;;5090445;28;20219;-75
2021/01/23 11:04:16;;;;;;;7.50;4.38;;;;;;;;;;5090077;28;20316;-77
2021/01/23 11:06:49;;;;;;;8.88;4.05;;;;;;;;;;5081407;28;20283;-75
2021/01/23 11:09:21;;;;;;;5.95;4.57;;;;;;;;;;5088107;28;20193;-75
2021/01/23 11:11:54;;;;;;;6.47;3.75;;;;;;;;;;5088574;28;20217;-76
2021/01/23 11:14:27;;;;;;;4.65;3.40;;;;;;;;;;5090462;28;20242;-75
2021/01/23 11:17:01;;;;;;;7.15;4.57;;;;;;;;;;5089882;28;20626;-75
2021/01/23 11:19:33;;;;;;;4.88;3.65;;;;;;;;;;5090487;28;20217;-77
2021/01/23 11:22:06;;;;;;;4.10;3.30;;;;;;;;;;5091284;28;20219;-75
2021/01/23 11:24:41;;;;;;;5.78;3.10;;;;;;;;;;5092858;28;20250;-76
2021/01/23 11:27:13;;;;;;;3.05;2.75;;;;;;;;;;5091880;28;20197;-76
2021/01/23 11:29:46;;;;;;;3.13;2.83;;;;;;;;;;5088018;28;20190;-77
2021/01/23 11:32:20;;;;;;;5.57;3.38;;;;;;;;;;5083386;28;20266;-76
2021/01/23 11:34:46;;;;;;;6.93;3.42;;;;;;;;;;5084770;28;20284;-77
2021/01/23 11:37:19;;;;;;;2.65;2.35;;;;;;;;;;5085330;28;21974;-78
2021/01/23 11:39:52;;;;;;;3.90;2.60;;;;;;;;;;5084753;28;20733;-76
2021/01/23 11:42:25;;;;;;;4.22;2.53;;;;;;;;;;5085277;28;20215;-77
2021/01/23 11:44:58;;;;;;;2.05;1.85;;;;;;;;;;5086501;28;20200;-77
2021/01/23 11:47:31;;;;;;;3.00;2.70;;;;;;;;;;5086522;28;20280;-77
2021/01/23 11:50:04;;;;;;;3.45;2.50;;;;;;;;;;5086736;28;20198;-76
2021/01/23 11:52:37;;;;;;;4.97;2.75;;;;;;;;;;5085029;28;20311;-78
2021/01/23 11:55:10;;;;;;;3.58;2.75;;;;;;;;;;5082337;28;20200;-76
2021/01/23 11:57:37;;;;;;;7.57;2.50;;;;;;;;;;5082279;28;20199;-76
2021/01/23 12:00:05;;;;;;;3.75;1.92;;;;;;;;;;5085297;28;20633;-75
2021/01/23 12:02:38;;;;;;;5.80;2.45;;;;;;;;;;5087621;28;20331;-76
2021/01/23 12:05:18;;;;;;;4.05;2.75;;;;;;;;;;5086563;28;20227;-75
2021/01/23 12:07:51;;;;;;;3.20;2.15;;;;;;;;;;5084888;28;20255;-76
2021/01/23 12:10:24;;;;;;;2.58;2.00;;;;;;;;;;5091756;28;20220;-76
2021/01/23 12:12:57;;;;;;;5.93;3.10;;;;;;;;;;5091451;28;20297;-75
2021/01/23 12:15:30;;;;;;;2.80;2.33;;;;;;;;;;5093136;28;20185;-76
2021/01/23 12:17:57;;;;;;;4.85;2.10;;;;;;;;;;5090643;28;20193;-76
2021/01/23 12:20:30;;;;;;;2.58;2.20;;;;;;;;;;5091651;28;20318;-75
2021/01/23 12:23:03;;;;;;;5.60;3.10;;;;;;;;;;5092851;28;20232;-77
2021/01/23 12:25:36;;;;;;;5.03;2.63;;;;;;;;;;5091947;28;20210;-75
2021/01/23 12:28:09;;;;;;;8.63;5.30;;;;;;;;;;5093472;28;20294;-76
2021/01/23 12:30:41;;;;;;;5.13;2.63;;;;;;;;;;5093523;28;20265;-75
2021/01/23 12:33:15;;;;;;;5.18;3.35;;;;;;;;;;5094766;28;20245;-75
2021/01/23 12:35:48;;;;;;;6.05;2.78;;;;;;;;;;5094958;28;20625;-74
2021/01/23 12:38:21;;;;;;;2.25;2.05;;;;;;;;;;5091567;28;21185;-76
2021/01/23 12:40:53;;;;;;;2.83;2.13;;;;;;;;;;5090967;28;20307;-75
2021/01/23 12:43:26;;;;;;;2.05;1.75;;;;;;;;;;5091955;28;20215;-75
2021/01/23 12:45:59;;;;;;;3.67;2.17;;;;;;;;;;5092356;28;20197;-76
2021/01/23 12:48:33;;;;;;;4.00;2.33;;;;;;;;;;5092097;28;20525;-75
2021/01/23 12:51:06;;;;;;;2.95;2.10;;;;;;;;;;5093287;28;20211;-75
2021/01/23 12:53:39;;;;;;;7.22;2.22;;;;;;;;;;5094180;28;20577;-75
2021/01/23 12:56:11;;;;;;;4.10;2.35;;;;;;;;;;5094937;28;20208;-74
2021/01/23 12:58:45;;;;;;;2.42;2.10;;;;;;;;;;5094430;28;20203;-75
2021/01/23 13:01:19;;;;;;;3.47;1.73;;;;;;;;;;5090477;28;20226;-76
2021/01/23 13:03:47;;;;;;;2.30;1.70;;;;;;;;;;5089518;28;20465;-75
2021/01/23 13:06:18;;;;;;;2.88;2.10;;;;;;;;;;5086138;28;20564;-75
2021/01/23 13:08:45;;;;;;;3.78;2.05;;;;;;;;;;5091222;28;20196;-75
2021/01/23 13:11:19;;;;;;;2.73;1.73;;;;;;;;;;5091811;28;20191;-76
2021/01/23 13:13:52;;;;;;;3.50;1.95;;;;;;;;;;5091360;28;21003;-76
2021/01/23 13:16:26;;;;;;;2.43;2.07;;;;;;;;;;5089381;28;20201;-75
2021/01/23 13:19:02;;;;;;;2.30;1.63;;;;;;;;;;5090949;28;20533;-75
2021/01/23 13:21:34;;;;;;;4.18;2.20;;;;;;;;;;5089720;28;20474;-75
2021/01/23 13:24:07;;;;;;;2.90;1.77;;;;;;;;;;5091629;28;20288;-75
2021/01/23 13:26:35;;;;;;;4.30;1.90;;;;;;;;;;5091971;28;20813;-76
2021/01/23 13:29:08;;;;;;;5.20;2.05;;;;;;;;;;5093961;28;20454;-76
2021/01/23 13:31:40;;;;;;;3.90;2.00;;;;;;;;;;5093652;28;20207;-81
2021/01/23 13:34:14;;;;;;;2.33;1.77;;;;;;;;;;5093907;28;20541;-77
2021/01/23 13:36:48;;;;;;;1.83;1.63;;;;;;;;;;5091625;28;21745;-76
2021/01/23 13:39:21;;;;;;;3.00;1.53;;;;;;;;;;5088366;28;20443;-75
2021/01/23 13:41:48;;;;;;;4.40;1.80;;;;;;;;;;5082127;28;20851;-74
2021/01/23 13:44:21;;;;;;;8.23;2.07;;;;;;;;;;5090739;28;20435;-74
2021/01/23 13:46:54;;;;;;;4.97;1.90;;;;;;;;;;5087965;28;20440;-75
2021/01/23 13:49:27;;;;;;;3.43;1.40;;;;;;;;;;5075174;28;20869;-74
2021/01/23 13:52:00;;;;;;;3.07;1.50;;;;;;;;;;5093348;28;20590;-74
2021/01/23 13:54:33;;;;;;;5.37;1.70;;;;;;;;;;5093511;28;20533;-74
2021/01/23 13:57:06;;;;;;;1.67;1.50;;;;;;;;;;5093328;28;21021;-74
2021/01/23 13:59:40;;;;;;;2.53;1.60;;;;;;;;;;5089979;28;20920;-74
2021/01/23 14:02:13;;;;;;;4.77;2.40;;;;;;;;;;5087789;28;20544;-75
2021/01/23 14:04:40;;;;;;;2.10;1.87;;;;;;;;;;5090528;28;20569;-75
2021/01/23 14:07:07;;;;;;;2.37;1.93;;;;;;;;;;5091157;28;20840;-73
2021/01/23 14:09:41;;;;;;;3.03;1.90;;;;;;;;;;5091213;28;21133;-73
2021/01/23 14:12:14;;;;;;;2.80;1.70;;;;;;;;;;5073169;28;20592;-74
2021/01/23 14:14:41;;;;;;;3.22;2.25;;;;;;;;;;5073684;28;20994;-75
2021/01/23 14:17:13;;;;;;;3.17;1.87;;;;;;;;;;5093141;28;20199;-74
2021/01/23 14:19:41;;;;;;;2.53;1.73;;;;;;;;;;5093224;28;20581;-74
2021/01/23 14:22:08;;;;;;;5.57;2.10;;;;;;;;;;5089265;28;20476;-73
2021/01/23 14:24:41;;;;;;;4.65;2.00;;;;;;;;;;5088974;28;20199;-74
2021/01/23 14:27:14;;;;;;;3.23;1.80;;;;;;;;;;5090842;28;20720;-73
2021/01/23 14:29:40;;;;;;;2.63;1.70;;;;;;;;;;5090345;28;20454;-74
2021/01/23 14:32:13;;;;;;;2.27;1.80;;;;;;;;;;5088200;28;20470;-75
2021/01/23 14:34:47;;;;;;;3.27;1.80;;;;;;;;;;5090974;28;20479;-79
2021/01/23 14:37:14;;;;;;;2.25;1.85;;;;;;;;;;5090249;28;20439;-75
2021/01/23 14:39:50;;;;;;;4.18;2.05;;;;;;;;;;5087363;28;20282;-76
2021/01/23 14:42:23;;;;;;;2.75;1.75;;;;;;;;;;5086992;28;20214;-76
2021/01/23 14:44:56;;;;;;;3.20;1.80;;;;;;;;;;5089308;28;20234;-77
2021/01/23 14:47:29;;;;;;;3.47;2.10;;;;;;;;;;5090206;28;20202;-82
2021/01/23 14:49:56;;;;;;;1.80;1.50;;;;;;;;;;5090894;28;20661;-74
2021/01/23 14:52:29;;;;;;;4.23;2.13;;;;;;;;;;5090641;28;20226;-75
2021/01/23 14:55:02;;;;;;;3.45;2.20;;;;;;;;;;5092688;28;20559;-74
2021/01/23 14:57:30;;;;;;;3.17;2.05;;;;;;;;;;5092674;28;20204;-74
2021/01/23 15:00:02;;;;;;;3.13;2.00;;;;;;;;;;5092681;28;20247;-75
2021/01/23 15:02:35;;;;;;;2.17;1.80;;;;;;;;;;5086869;28;20469;-75
2021/01/23 15:05:11;;;;;;;3.13;1.80;;;;;;;;;;5088175;28;20458;-74
2021/01/23 15:07:46;;;;;;;2.90;1.97;;;;;;;;;;5090416;28;20532;-75
2021/01/23 15:10:18;;;;;;;3.65;1.70;;;;;;;;;;5089229;28;20524;-74
2021/01/23 15:12:51;;;;;;;3.00;1.75;;;;;;;;;;5090368;28;20229;-75
2021/01/23 15:15:24;;;;;;;2.40;1.77;;;;;;;;;;5092467;28;20269;-75